Time;durP1;ratioP1;P1;durP2;ratioP2;P2;SDS_P1;SDS_P2;PMS_P1;PMS_P2;Temp;Humidity;BMP_temperature;BMP_pressure;BME280_temperature;BME280_humidity;BME280_pressure;Samples;Min_cycle;Max_cycle;Signal;HPM_P1;HPM_P2
2022/04/30 00:00:04;;;;;;;8.82;5.75;;;;;;;6.71;75.16;102833.75;5071267;28;20050;-71
2022/04/30 00:02:30;;;;;;;11.20;5.82;;;;;;;6.71;75.03;102833.75;5072115;28;20090;-71
2022/04/30 00:04:55;;;;;;;12.13;5.68;;;;;;;6.70;74.70;102836.28;5071428;28;20025;-71
2022/04/30 00:07:21;;;;;;;12.73;5.65;;;;;;;6.67;75.17;102829.34;5071141;28;20475;-71
2022/04/30 00:09:47;;;;;;;8.40;5.85;;;;;;;6.65;75.29;102837.91;5083210;28;20128;-71
2022/04/30 00:12:15;;;;;;;9.05;6.00;;;;;;;6.59;75.14;102836.03;5092071;28;20032;-71
2022/04/30 00:14:40;;;;;;;9.32;5.90;;;;;;;6.62;75.86;102830.06;5088676;28;20024;-71
2022/04/30 00:17:06;;;;;;;9.00;5.90;;;;;;;6.56;75.57;102831.63;5072143;28;20123;-71
2022/04/30 00:19:32;;;;;;;12.52;5.82;;;;;;;6.53;75.74;102833.28;5071738;28;20056;-71
2022/04/30 00:21:57;;;;;;;10.63;5.97;;;;;;;6.45;75.85;102829.63;5071155;28;20059;-70
2022/04/30 00:24:24;;;;;;;12.00;6.70;;;;;;;6.38;76.47;102835.50;5071918;28;20441;-71
2022/04/30 00:26:50;;;;;;;8.52;5.45;;;;;;;6.40;76.73;102829.50;5084689;28;20028;-71
2022/04/30 00:29:16;;;;;;;7.95;5.85;;;;;;;6.37;76.62;102829.41;5087472;28;20101;-71
2022/04/30 00:31:41;;;;;;;9.60;5.85;;;;;;;6.28;76.64;102824.91;5086161;28;20017;-71
2022/04/30 00:34:07;;;;;;;11.15;5.65;;;;;;;6.32;76.87;102826.72;5071579;28;20033;-70
2022/04/30 00:36:32;;;;;;;10.80;5.45;;;;;;;6.32;76.96;102834.50;5086162;28;20024;-71
2022/04/30 00:38:57;;;;;;;7.68;5.25;;;;;;;6.28;76.56;102834.38;5092011;28;20050;-71
2022/04/30 00:41:23;;;;;;;8.65;5.68;;;;;;;6.26;77.47;102831.75;5075632;28;20400;-71
2022/04/30 00:43:53;;;;;;;12.18;5.57;;;;;;;6.19;77.75;102831.56;5071347;28;20530;-71
2022/04/30 00:46:21;;;;;;;9.27;5.07;;;;;;;6.13;77.89;102827.06;5083653;28;20028;-71
2022/04/30 00:48:47;;;;;;;9.77;5.80;;;;;;;6.14;77.95;102831.41;5090893;28;20047;-71
2022/04/30 00:51:18;;;;;;;9.10;5.50;;;;;;;6.13;78.45;102816.72;5091533;28;20486;-71
2022/04/30 00:53:46;;;;;;;9.93;5.18;;;;;;;6.15;78.36;102819.34;5091784;28;20113;-71
2022/04/30 00:56:13;;;;;;;12.63;4.95;;;;;;;6.05;78.13;102808.75;5089464;28;20492;-71
2022/04/30 00:58:45;;;;;;;9.88;5.10;;;;;;;6.08;78.37;102814.03;5089516;28;20035;-71
2022/04/30 01:01:11;;;;;;;12.38;5.35;;;;;;;6.01;78.42;102811.22;5071421;28;20082;-71
2022/04/30 01:03:36;;;;;;;9.55;4.78;;;;;;;5.99;78.34;102812.91;5070306;28;20041;-71
2022/04/30 01:06:04;;;;;;;9.10;5.22;;;;;;;5.96;78.58;102815.41;5082836;28;20031;-71
2022/04/30 01:08:29;;;;;;;10.63;5.00;;;;;;;5.94;79.02;102815.34;5075773;28;20027;-71
2022/04/30 01:10:56;;;;;;;7.90;4.93;;;;;;;5.91;79.34;102815.22;5075023;28;20024;-71
2022/04/30 01:13:22;;;;;;;8.50;4.82;;;;;;;5.87;79.49;102816.84;5075108;28;20480;-71
2022/04/30 01:15:47;;;;;;;11.30;4.78;;;;;;;5.86;79.59;102816.84;5074781;28;20096;-71
2022/04/30 01:18:13;;;;;;;9.50;5.88;;;;;;;5.88;79.31;102809.97;5074072;28;20024;-70
2022/04/30 01:20:47;;;;;;;10.73;5.40;;;;;;;5.85;79.55;102818.53;5077803;28;20056;-71
2022/04/30 01:23:13;;;;;;;10.35;4.93;;;;;;;5.84;79.82;102819.34;5095433;28;20064;-71
2022/04/30 01:25:40;;;;;;;7.63;4.80;;;;;;;5.82;79.97;102810.69;5091771;28;20027;-71
2022/04/30 01:28:06;;;;;;;9.32;5.30;;;;;;;5.79;80.17;102809.75;5086740;28;20395;-71
2022/04/30 01:30:31;;;;;;;10.60;5.53;;;;;;;5.82;80.17;102808.09;5074274;28;20094;-71
2022/04/30 01:38:25;;;;;;;10.73;5.35;;;;;;;5.76;80.67;102801.88;5074138;28;20522;-70
2022/04/30 01:40:50;;;;;;;9.25;5.22;;;;;;;5.70;80.65;102794.81;5074603;28;20055;-70
2022/04/30 01:43:16;;;;;;;12.45;5.88;;;;;;;5.71;81.29;102799.16;5080104;28;20059;-70
2022/04/30 01:45:44;;;;;;;8.68;5.70;;;;;;;5.70;81.23;102801.72;5092941;28;20094;-70
2022/04/30 01:48:13;;;;;;;8.55;5.43;;;;;;;5.69;81.49;102800.84;5092685;28;20031;-70
2022/04/30 01:50:39;;;;;;;8.60;5.07;;;;;;;5.63;81.37;102793.78;5094737;28;20024;-71
2022/04/30 01:53:05;;;;;;;10.40;5.25;;;;;;;5.58;81.58;102800.50;5093981;28;20532;-70
2022/04/30 01:55:30;;;;;;;9.55;6.25;;;;;;;5.55;81.82;102797.84;5092815;28;20043;-70
2022/04/30 01:57:56;;;;;;;11.88;5.50;;;;;;;5.51;82.02;102802.91;5094687;28;20028;-70
2022/04/30 02:00:22;;;;;;;11.13;5.35;;;;;;;5.51;82.13;102802.91;5093951;28;20387;-70
2022/04/30 02:02:49;;;;;;;9.98;5.57;;;;;;;5.48;82.63;102805.38;5094328;28;20020;-71
2022/04/30 02:05:17;;;;;;;9.20;5.35;;;;;;;5.43;82.91;102799.19;5075601;28;20463;-70
2022/04/30 02:07:48;;;;;;;8.68;5.47;;;;;;;5.39;82.76;102793.97;5073416;28;20116;-70
2022/04/30 02:10:14;;;;;;;9.68;5.45;;;;;;;5.34;82.89;102794.66;5073485;28;20531;-71
2022/04/30 02:12:40;;;;;;;11.27;6.30;;;;;;;5.28;82.92;102792.75;5073849;28;20119;-70
2022/04/30 02:15:08;;;;;;;10.50;5.60;;;;;;;5.28;83.38;102784.13;5073284;28;20037;-71
2022/04/30 02:17:38;;;;;;;13.27;6.35;;;;;;;5.22;83.63;102779.63;5072750;28;20115;-71
2022/04/30 02:20:18;;;;;;;9.75;5.90;;;;;;;5.18;83.72;102792.44;5072804;28;20369;-70
2022/04/30 02:22:47;;;;;;;9.50;6.35;;;;;;;5.15;84.11;102783.75;5073818;28;20029;-70
2022/04/30 02:25:14;;;;;;;11.48;6.18;;;;;;;5.16;83.95;102782.91;5073721;28;20079;-70
2022/04/30 02:27:42;;;;;;;9.07;6.15;;;;;;;5.12;84.41;102782.78;5072568;28;20028;-71
2022/04/30 02:30:12;;;;;;;11.98;6.40;;;;;;;5.08;84.44;102779.22;5080595;28;20023;-70
2022/04/30 02:32:42;;;;;;;9.85;6.15;;;;;;;5.09;84.53;102780.09;5093938;28;20020;-71
2022/04/30 02:35:09;;;;;;;12.57;6.55;;;;;;;5.05;84.53;102776.56;5077303;28;20029;-70
2022/04/30 02:37:35;;;;;;;10.35;6.57;;;;;;;5.00;84.96;102778.09;5072847;28;20025;-71
2022/04/30 02:40:01;;;;;;;14.60;6.80;;;;;;;4.93;85.10;102774.47;5073393;28;20119;-70
2022/04/30 02:42:27;;;;;;;13.10;6.57;;;;;;;4.88;85.46;102777.75;5073088;28;20452;-70
2022/04/30 02:44:52;;;;;;;12.90;7.03;;;;;;;4.89;85.72;102772.63;5073731;28;20111;-71
2022/04/30 02:47:18;;;;;;;11.70;6.25;;;;;;;4.83;85.53;102769.84;5073297;28;20116;-71
2022/04/30 02:49:44;;;;;;;10.02;6.75;;;;;;;4.84;85.48;102771.63;5072600;28;20056;-71
2022/04/30 02:52:09;;;;;;;9.52;6.55;;;;;;;4.82;85.52;102772.41;5073169;28;20538;-70
2022/04/30 02:54:34;;;;;;;11.30;6.85;;;;;;;4.83;85.55;102772.41;5078873;28;20047;-71
2022/04/30 02:57:01;;;;;;;13.13;7.28;;;;;;;4.82;85.56;102769.81;5093130;28;20020;-70
2022/04/30 03:02:10;;;;;;;11.45;7.30;;;;;;;4.73;86.43;102772.97;5092665;28;20049;-70
2022/04/30 03:04:35;;;;;;;13.15;6.82;;;;;;;4.74;86.42;102779.00;5075422;28;20036;-71
2022/04/30 03:07:01;;;;;;;15.18;7.82;;;;;;;4.70;86.53;102767.72;5093681;28;20016;-71
2022/04/30 03:09:26;;;;;;;12.35;7.20;;;;;;;4.62;87.12;102769.19;5092785;28;20101;-70
2022/04/30 03:11:52;;;;;;;15.93;7.80;;;;;;;4.68;86.98;102787.47;5093182;28;20028;-70
2022/04/30 03:14:17;;;;;;;18.02;7.78;;;;;;;4.67;87.19;102783.09;5076730;28;20118;-70
2022/04/30 03:22:11;;;;;;;12.73;7.47;;;;;;;4.54;87.09;102775.78;5093469;28;19919;-71
2022/04/30 03:24:36;;;;;;;12.95;7.82;;;;;;;4.50;87.62;102779.13;5088635;28;20417;-70
2022/04/30 03:27:03;;;;;;;13.60;7.35;;;;;;;4.51;87.93;102773.13;5092777;28;20073;-71
2022/04/30 03:29:29;;;;;;;15.40;7.32;;;;;;;4.51;87.90;102770.53;5092596;28;20032;-71
2022/04/30 03:31:56;;;;;;;12.90;7.78;;;;;;;4.44;88.25;102765.16;5092165;28;20028;-70
2022/04/30 03:34:21;;;;;;;18.08;7.47;;;;;;;4.44;88.52;102769.47;5088869;28;20028;-71
2022/04/30 03:36:46;;;;;;;16.02;7.85;;;;;;;4.36;88.58;102766.63;5091764;28;20073;-71
2022/04/30 03:39:12;;;;;;;11.75;7.45;;;;;;;4.33;88.43;102753.63;5091908;28;20031;-71
2022/04/30 03:41:38;;;;;;;13.55;7.47;;;;;;;4.33;88.91;102753.63;5092661;28;20028;-70
2022/04/30 03:44:03;;;;;;;11.48;7.38;;;;;;;4.30;88.73;102760.38;5089863;28;20107;-71
2022/04/30 03:46:29;;;;;;;14.85;8.32;;;;;;;4.28;89.08;102757.75;5071925;28;20364;-70
2022/04/30 03:48:56;;;;;;;15.65;8.52;;;;;;;4.26;89.32;102754.25;5072360;28;20376;-71
2022/04/30 03:51:24;;;;;;;16.92;9.00;;;;;;;4.27;89.40;102755.13;5071461;28;20033;-70
2022/04/30 03:53:50;;;;;;;14.07;8.27;;;;;;;4.25;89.88;102752.50;5071370;28;20464;-71
2022/04/30 03:56:19;;;;;;;14.82;8.00;;;;;;;4.21;89.86;102748.03;5071489;28;20098;-70
2022/04/30 03:58:47;;;;;;;17.15;8.60;;;;;;;4.17;90.28;102754.81;5071175;28;20032;-70
2022/04/30 04:01:13;;;;;;;15.13;8.25;;;;;;;4.07;90.33;102736.41;5072203;28;20028;-71
2022/04/30 04:03:39;;;;;;;15.15;8.25;;;;;;;4.13;90.60;102754.66;5090318;28;20028;-70
2022/04/30 04:06:04;;;;;;;13.23;8.75;;;;;;;4.13;90.70;102752.97;5074540;28;20027;-70
2022/04/30 04:08:29;;;;;;;13.90;8.25;;;;;;;4.11;90.90;102754.59;5072308;28;20447;-70
2022/04/30 04:10:55;;;;;;;17.05;8.75;;;;;;;4.06;90.07;102761.34;5084271;28;20486;-71
2022/04/30 04:18:51;;;;;;;18.10;9.15;;;;;;;3.90;91.21;102756.47;5072043;28;20063;-70
2022/04/30 04:21:17;;;;;;;14.02;8.73;;;;;;;3.86;91.88;102763.22;5072485;28;20037;-70
2022/04/30 04:26:26;;;;;;;18.77;8.77;;;;;;;3.87;90.47;102764.97;5071324;28;20495;-71
2022/04/30 04:28:51;;;;;;;17.35;9.32;;;;;;;3.85;91.56;102758.00;5071549;28;20036;-70
2022/04/30 04:31:22;;;;;;;16.30;9.10;;;;;;;3.87;91.30;102764.09;5071720;28;20388;-70
2022/04/30 04:33:47;;;;;;;15.43;8.88;;;;;;;3.88;91.67;102763.28;5070990;28;20024;-70
2022/04/30 04:36:12;;;;;;;15.73;8.43;;;;;;;3.89;92.15;102770.19;5084899;28;20392;-71
2022/04/30 04:38:38;;;;;;;16.70;9.27;;;;;;;3.89;92.49;102765.91;5091999;28;20429;-71
2022/04/30 04:41:03;;;;;;;16.30;9.43;;;;;;;3.94;92.36;102769.50;5088431;28;20024;-71
2022/04/30 04:43:28;;;;;;;14.88;9.02;;;;;;;3.94;92.06;102766.06;5089776;28;20029;-70
2022/04/30 04:45:53;;;;;;;16.35;9.48;;;;;;;3.97;92.47;102772.22;5088940;28;20058;-70
2022/04/30 04:48:19;;;;;;;17.45;9.15;;;;;;;3.97;92.75;102772.22;5085480;28;20033;-70
2022/04/30 04:50:46;;;;;;;19.30;10.10;;;;;;;3.98;92.76;102767.91;5075520;28;20035;-71
2022/04/30 04:53:12;;;;;;;15.05;9.50;;;;;;;4.01;93.25;102783.50;5075215;28;20358;-71
2022/04/30 04:55:37;;;;;;;17.33;9.82;;;;;;;4.02;93.05;102782.69;5074013;28;20052;-70
2022/04/30 04:58:03;;;;;;;19.30;9.77;;;;;;;4.07;93.02;102788.00;5075506;28;20037;-71
2022/04/30 05:00:28;;;;;;;16.67;9.10;;;;;;;4.08;93.11;102787.19;5075540;28;20029;-70
2022/04/30 05:02:53;;;;;;;18.13;9.80;;;;;;;4.12;92.28;102796.78;5074195;28;20034;-70
2022/04/30 05:05:19;;;;;;;14.10;9.07;;;;;;;4.16;93.05;102799.53;5075382;28;20029;-70
2022/04/30 05:07:44;;;;;;;19.13;9.98;;;;;;;4.14;92.79;102801.16;5075316;28;20028;-70
2022/04/30 05:10:10;;;;;;;16.40;9.52;;;;;;;4.14;93.09;102802.88;5074153;28;20027;-70
2022/04/30 05:12:35;;;;;;;14.98;9.13;;;;;;;4.18;93.20;102807.31;5075225;28;20047;-71
2022/04/30 05:15:00;;;;;;;17.50;10.18;;;;;;;4.16;93.17;102796.09;5075057;28;20024;-70
2022/04/30 05:17:25;;;;;;;18.42;10.52;;;;;;;4.23;93.06;102805.78;5074471;28;20028;-70
2022/04/30 05:19:51;;;;;;;19.70;9.80;;;;;;;4.29;93.29;102803.41;5074788;28;20074;-70
2022/04/30 05:22:16;;;;;;;16.30;9.82;;;;;;;4.35;93.26;102801.03;5075147;28;20126;-71
2022/04/30 05:24:41;;;;;;;18.55;10.93;;;;;;;4.42;93.25;102796.97;5074041;28;20461;-70
2022/04/30 05:27:08;;;;;;;19.42;10.70;;;;;;;4.50;93.28;102799.78;5074961;28;20025;-70
2022/04/30 05:29:34;;;;;;;17.10;10.07;;;;;;;4.55;93.83;102801.69;5074634;28;20494;-71
2022/04/30 05:31:59;;;;;;;17.45;10.45;;;;;;;4.59;93.31;102794.91;5074314;28;20028;-70
2022/04/30 05:34:25;;;;;;;20.30;10.52;;;;;;;4.67;93.25;102798.63;5074433;28;20032;-70
2022/04/30 05:36:50;;;;;;;21.33;10.68;;;;;;;4.74;92.58;102797.09;5073650;28;20036;-71
2022/04/30 05:39:15;;;;;;;15.57;9.82;;;;;;;4.79;92.80;102801.59;5074751;28;20047;-70
2022/04/30 05:41:40;;;;;;;17.75;10.75;;;;;;;4.84;92.80;102805.22;5091712;28;20372;-70
2022/04/30 05:44:06;;;;;;;19.90;11.32;;;;;;;4.89;92.74;102805.34;5093063;28;20050;-70
2022/04/30 05:46:31;;;;;;;23.77;11.68;;;;;;;4.95;92.53;102805.53;5078478;28;20024;-70
2022/04/30 05:48:56;;;;;;;19.23;11.13;;;;;;;4.99;92.71;102798.75;5074018;28;20035;-70
2022/04/30 05:51:21;;;;;;;23.25;11.57;;;;;;;5.04;92.21;102800.66;5073445;28;20023;-70
2022/04/30 05:53:47;;;;;;;19.38;11.15;;;;;;;5.14;91.70;102801.81;5082524;28;20081;-70
2022/04/30 05:56:12;;;;;;;19.63;10.70;;;;;;;5.20;91.67;102802.00;5092474;28;20377;-70
2022/04/30 05:58:37;;;;;;;17.15;10.95;;;;;;;5.28;91.70;102802.22;5093950;28;20059;-70
2022/04/30 06:01:03;;;;;;;19.15;11.38;;;;;;;5.34;91.76;102803.28;5093446;28;20085;-71
2022/04/30 06:03:29;;;;;;;17.27;11.50;;;;;;;5.38;91.41;102801.66;5094845;28;20107;-70
2022/04/30 06:05:55;;;;;;;21.85;10.60;;;;;;;5.44;91.48;102799.25;5083010;28;20031;-70
2022/04/30 06:08:20;;;;;;;21.25;11.07;;;;;;;5.59;91.08;102806.56;5073848;28;20414;-71
2022/04/30 06:10:45;;;;;;;19.75;10.93;;;;;;;5.63;90.83;102814.47;5081109;28;20031;-70
2022/04/30 06:13:11;;;;;;;16.05;10.45;;;;;;;5.70;90.20;102814.66;5093494;28;20531;-71
2022/04/30 06:15:36;;;;;;;19.45;10.90;;;;;;;5.79;90.07;102810.59;5081184;28;20035;-71
2022/04/30 06:18:01;;;;;;;17.35;11.15;;;;;;;5.82;89.97;102809.78;5083004;28;20483;-71
2022/04/30 06:20:27;;;;;;;16.40;9.98;;;;;;;5.92;89.70;102811.81;5093472;28;20035;-71
2022/04/30 06:22:52;;;;;;;18.45;10.35;;;;;;;6.01;89.50;102806.91;5094295;28;20063;-71
2022/04/30 06:25:17;;;;;;;17.70;10.05;;;;;;;6.06;88.52;102804.44;5092989;28;20032;-71
2022/04/30 06:27:43;;;;;;;17.20;9.75;;;;;;;6.11;89.01;102808.03;5093579;28;20020;-71
2022/04/30 06:30:09;;;;;;;17.17;10.38;;;;;;;6.24;88.74;102802.31;5094104;28;20460;-71
2022/04/30 06:32:35;;;;;;;17.30;10.38;;;;;;;6.33;88.28;102810.34;5093975;28;20031;-71
2022/04/30 06:35:02;;;;;;;15.50;9.93;;;;;;;6.40;88.43;102807.91;5089806;28;20028;-71
2022/04/30 06:37:27;;;;;;;20.60;10.50;;;;;;;6.48;88.10;102811.59;5074498;28;20375;-71
2022/04/30 06:39:52;;;;;;;16.63;9.63;;;;;;;6.49;87.39;102798.66;5073412;28;20017;-70
2022/04/30 06:42:17;;;;;;;20.67;10.43;;;;;;;6.60;87.21;102803.22;5072774;28;20055;-71
2022/04/30 06:44:43;;;;;;;16.15;10.15;;;;;;;6.66;87.26;102805.94;5073636;28;20021;-71
2022/04/30 06:47:08;;;;;;;21.35;10.13;;;;;;;6.70;86.58;102800.91;5072013;28;20093;-71
2022/04/30 06:49:34;;;;;;;16.98;9.90;;;;;;;6.79;86.46;102808.00;5073258;28;20491;-71
2022/04/30 06:51:59;;;;;;;16.77;10.02;;;;;;;6.83;86.15;102803.75;5073409;28;20115;-71
2022/04/30 06:57:08;;;;;;;17.48;10.93;;;;;;;6.96;85.93;102803.19;5081422;28;20039;-71
2022/04/30 06:59:41;;;;;;;16.85;10.88;;;;;;;7.02;85.27;102803.34;5093342;28;20024;-71
2022/04/30 07:02:12;;;;;;;14.83;9.87;;;;;;;7.13;86.20;102800.97;5086969;28;20050;-71
2022/04/30 07:04:39;;;;;;;14.98;9.20;;;;;;;7.24;84.86;102813.34;5092766;28;20258;-71
2022/04/30 07:07:05;;;;;;;12.85;9.93;;;;;;;7.36;85.56;102810.16;5093311;28;20434;-71
2022/04/30 07:09:32;;;;;;;17.02;9.10;;;;;;;7.42;83.07;102810.28;5092693;28;20016;-71
2022/04/30 07:12:04;;;;;;;16.38;9.45;;;;;;;7.47;83.57;102807.78;5078705;28;20028;-70
2022/04/30 07:14:30;;;;;;;18.60;9.88;;;;;;;7.51;83.11;102800.06;5073018;28;20089;-71
2022/04/30 07:16:55;;;;;;;14.80;9.60;;;;;;;7.60;82.54;102802.00;5072424;28;20025;-70
2022/04/30 07:19:21;;;;;;;15.32;9.13;;;;;;;7.78;82.61;102801.47;5075800;28;20036;-71
2022/04/30 07:21:46;;;;;;;14.68;8.98;;;;;;;7.92;81.81;102805.22;5082000;28;20077;-71
2022/04/30 07:24:11;;;;;;;13.73;9.10;;;;;;;8.01;82.37;102811.41;5071989;28;20036;-71
2022/04/30 07:26:36;;;;;;;13.57;9.00;;;;;;;8.04;81.04;102807.16;5081374;28;20023;-71
2022/04/30 07:29:02;;;;;;;15.48;8.32;;;;;;;7.97;80.40;102805.28;5092779;28;20046;-71
2022/04/30 07:31:27;;;;;;;12.65;8.68;;;;;;;8.09;80.34;102809.84;5080148;28;20490;-71
2022/04/30 07:33:54;;;;;;;15.05;9.02;;;;;;;8.30;80.77;102807.63;5083698;28;20111;-71
2022/04/30 07:36:19;;;;;;;13.35;8.32;;;;;;;8.58;80.99;102805.53;5076090;28;20149;-71
2022/04/30 07:38:45;;;;;;;21.58;8.73;;;;;;;8.78;78.19;102798.91;5090656;28;20103;-71
2022/04/30 07:41:10;;;;;;;19.38;9.05;;;;;;;8.98;76.69;102806.13;5087728;28;20016;-71
2022/04/30 07:43:35;;;;;;;13.00;8.68;;;;;;;9.16;76.64;102790.78;5091757;28;20028;-71
2022/04/30 07:46:00;;;;;;;12.30;8.77;;;;;;;9.50;76.32;102792.09;5078640;28;20036;-71
2022/04/30 07:48:25;;;;;;;13.60;7.97;;;;;;;9.74;75.14;102801.03;5074572;28;20039;-71
2022/04/30 07:50:57;;;;;;;14.75;7.88;;;;;;;9.80;73.44;102785.47;5091638;28;20040;-70
2022/04/30 07:53:22;;;;;;;14.93;7.55;;;;;;;10.06;72.15;102789.22;5091682;28;20032;-71
2022/04/30 07:55:47;;;;;;;13.93;6.57;;;;;;;10.36;71.37;102787.78;5075367;28;20115;-71
2022/04/30 07:58:13;;;;;;;10.45;6.93;;;;;;;10.70;69.60;102788.06;5086110;28;20180;-71
2022/04/30 08:00:38;;;;;;;13.43;6.30;;;;;;;10.91;69.32;102788.19;5091323;28;20041;-71
2022/04/30 08:03:03;;;;;;;13.85;7.22;;;;;;;10.97;67.57;102789.97;5092328;28;20024;-71
2022/04/30 08:05:29;;;;;;;9.68;6.90;;;;;;;11.24;67.51;102778.78;5075446;28;20031;-71
2022/04/30 08:07:54;;;;;;;10.95;6.97;;;;;;;11.57;67.25;102779.78;5091863;28;20035;-71
2022/04/30 08:10:20;;;;;;;13.20;6.78;;;;;;;11.81;65.27;102785.09;5092157;28;20016;-71
2022/04/30 08:12:46;;;;;;;9.20;6.47;;;;;;;11.90;63.75;102766.88;5089414;28;20054;-71
2022/04/30 08:15:11;;;;;;;11.70;6.70;;;;;;;12.15;64.33;102780.81;5086408;28;20470;-72
2022/04/30 08:17:38;;;;;;;8.15;6.43;;;;;;;12.12;62.91;102780.81;5092131;28;20555;-71
2022/04/30 08:20:09;;;;;;;9.73;6.32;;;;;;;12.10;62.16;102777.34;5091295;28;20051;-71
2022/04/30 08:22:35;;;;;;;10.15;6.18;;;;;;;12.24;61.93;102779.97;5090600;28;20020;-71
2022/04/30 08:25:01;;;;;;;10.60;6.13;;;;;;;12.55;62.50;102772.09;5088442;28;20024;-71
2022/04/30 08:27:26;;;;;;;8.07;6.25;;;;;;;12.82;61.57;102766.84;5080589;28;20028;-72
2022/04/30 08:29:51;;;;;;;10.43;6.05;;;;;;;12.95;60.61;102770.31;5078024;28;20024;-71
2022/04/30 08:32:17;;;;;;;11.52;5.55;;;;;;;13.07;60.58;102772.84;5076076;28;20098;-71
2022/04/30 08:34:42;;;;;;;9.95;5.63;;;;;;;12.95;57.13;102764.16;5077452;28;20028;-71
2022/04/30 08:37:08;;;;;;;9.93;6.22;;;;;;;12.77;57.46;102770.31;5091791;28;20028;-71
2022/04/30 08:39:33;;;;;;;7.43;5.50;;;;;;;12.41;59.25;102775.59;5088751;28;20107;-71
2022/04/30 08:41:58;;;;;;;10.60;5.43;;;;;;;11.88;59.86;102775.56;5090249;28;20032;-71
2022/04/30 08:44:24;;;;;;;9.38;5.53;;;;;;;11.30;60.62;102771.00;5089463;28;20073;-71
2022/04/30 08:46:50;;;;;;;8.07;5.80;;;;;;;11.05;64.06;102771.72;5089955;28;20400;-71
2022/04/30 08:49:16;;;;;;;6.13;5.22;;;;;;;10.86;64.35;102766.44;5084089;28;20029;-71
2022/04/30 08:51:41;;;;;;;11.90;5.72;;;;;;;10.66;65.03;102766.31;5079949;28;20039;-71
2022/04/30 08:54:08;;;;;;;8.98;6.05;;;;;;;10.62;65.79;102771.47;5090905;28;20107;-71
2022/04/30 08:56:35;;;;;;;10.43;5.90;;;;;;;10.59;65.23;102769.69;5072682;28;20049;-71
2022/04/30 08:59:04;;;;;;;7.72;5.50;;;;;;;10.68;65.85;102768.91;5071882;28;20044;-71
2022/04/30 09:01:31;;;;;;;7.50;5.38;;;;;;;10.80;66.23;102769.00;5090322;28;20055;-71
2022/04/30 09:03:56;;;;;;;8.13;5.57;;;;;;;10.99;65.86;102756.94;5081576;28;20056;-71
2022/04/30 09:06:22;;;;;;;11.13;6.22;;;;;;;11.20;63.32;102758.75;5085335;28;20050;-72
2022/04/30 09:08:51;;;;;;;11.95;6.70;;;;;;;11.59;64.49;102758.03;5075211;28;20380;-71
2022/04/30 09:11:25;;;;;;;10.80;6.30;;;;;;;11.98;62.55;102755.53;5071179;28;20040;-71
2022/04/30 09:13:50;;;;;;;10.73;6.38;;;;;;;12.26;61.20;102743.34;5072252;28;20377;-71
2022/04/30 09:16:23;;;;;;;9.80;6.20;;;;;;;12.46;61.39;102752.06;5071762;28;20094;-72
2022/04/30 09:18:50;;;;;;;11.70;6.23;;;;;;;12.59;60.39;102753.78;5081537;28;20032;-71
2022/04/30 09:21:17;;;;;;;8.32;5.50;;;;;;;12.71;60.52;102754.63;5078964;28;20025;-71
2022/04/30 09:23:43;;;;;;;8.27;5.63;;;;;;;12.73;59.21;102752.91;5082464;28;20024;-70
2022/04/30 09:26:09;;;;;;;9.10;5.18;;;;;;;12.61;58.29;102746.78;5086822;28;20036;-71
2022/04/30 09:28:36;;;;;;;7.65;5.47;;;;;;;12.68;58.80;102750.28;5083773;28;20058;-71
2022/04/30 09:31:16;;;;;;;9.05;4.90;;;;;;;12.70;59.67;102753.75;5080255;28;20028;-71
2022/04/30 09:33:50;;;;;;;10.82;5.90;;;;;;;12.69;58.99;102744.19;5092119;28;20020;-73
2022/04/30 09:39:10;;;;;;;10.57;5.53;;;;;;;12.15;59.28;102738.13;5088467;28;20510;-72
2022/04/30 09:41:35;;;;;;;9.38;5.35;;;;;;;11.98;60.16;102745.94;5085978;28;20027;-71
2022/04/30 09:44:05;;;;;;;11.85;6.60;;;;;;;12.02;59.72;102741.59;5082383;28;20023;-72
2022/04/30 09:46:33;;;;;;;10.82;6.45;;;;;;;12.18;59.34;102743.34;5076211;28;20081;-72
2022/04/30 09:54:28;;;;;;;12.05;6.28;;;;;;;12.14;60.19;102732.03;5074848;28;20067;-71
2022/04/30 09:56:57;;;;;;;9.63;6.20;;;;;;;12.55;59.43;102717.16;5084416;28;20130;-71
2022/04/30 09:59:25;;;;;;;10.23;6.60;;;;;;;13.17;58.52;102718.69;5093961;28;20032;-71
2022/04/30 10:01:53;;;;;;;7.43;5.65;;;;;;;13.51;56.01;102718.59;5089846;28;20115;-71
2022/04/30 10:04:18;;;;;;;7.40;5.38;;;;;;;13.66;53.67;102707.13;5073565;28;20060;-71
2022/04/30 10:06:49;;;;;;;9.68;5.75;;;;;;;13.84;54.06;102706.13;5079542;28;20028;-71
2022/04/30 10:09:20;;;;;;;6.05;4.90;;;;;;;13.94;52.43;102713.06;5089901;28;20043;-71
2022/04/30 10:12:06;;;;;;;7.55;5.80;;;;;;;13.86;53.13;102709.59;5077212;28;20062;-71
2022/04/30 10:14:52;;;;;;;9.73;5.30;;;;;;;13.89;52.11;102714.81;5082151;28;20027;-71
2022/04/30 10:17:20;;;;;;;7.32;5.00;;;;;;;14.24;52.59;102702.28;5094281;28;20031;-71
2022/04/30 10:20:18;;;;;;;7.28;4.75;;;;;;;14.41;50.99;102703.88;5075120;28;20098;-71
2022/04/30 10:22:55;;;;;;;7.80;4.75;;;;;;;14.43;48.95;102702.13;5078142;28;20043;-72
2022/04/30 10:25:48;;;;;;;8.73;4.63;;;;;;;14.44;49.76;102699.47;5088971;28;20039;-72
2022/04/30 10:28:17;;;;;;;8.20;5.00;;;;;;;14.40;48.96;102704.78;5076023;28;20029;-71
2022/04/30 10:30:57;;;;;;;10.05;4.80;;;;;;;14.52;49.04;102702.06;5081480;28;20040;-71
2022/04/30 10:33:23;;;;;;;9.23;5.30;;;;;;;14.54;49.92;102700.28;5083778;28;20020;-72
2022/04/30 10:35:49;;;;;;;8.50;4.72;;;;;;;14.67;46.18;102701.88;5073885;28;20033;-72
2022/04/30 10:38:21;;;;;;;5.97;4.70;;;;;;;14.58;48.61;102698.50;5078523;28;20046;-71
2022/04/30 10:40:47;;;;;;;5.95;4.60;;;;;;;14.56;48.35;102702.91;5082584;28;20107;-72
2022/04/30 10:43:37;;;;;;;6.13;5.05;;;;;;;14.62;46.96;102693.22;5073596;28;20094;-72
2022/04/30 10:46:17;;;;;;;7.53;4.75;;;;;;;14.35;47.82;102693.44;5061526;28;20119;-72
2022/04/30 10:48:42;;;;;;;4.55;4.07;;;;;;;14.31;48.33;102684.75;5073528;28;20108;-72
2022/04/30 10:51:11;;;;;;;4.78;3.45;;;;;;;14.12;46.49;102681.41;5079205;28;20064;-72
2022/04/30 10:53:40;;;;;;;5.63;3.75;;;;;;;13.75;47.82;102676.47;5090752;28;20035;-72
2022/04/30 10:56:07;;;;;;;4.75;3.33;;;;;;;13.41;47.56;102673.22;5074745;28;20393;-72
2022/04/30 10:58:34;;;;;;;4.22;3.17;;;;;;;13.41;48.65;102677.59;5075695;28;20024;-72
2022/04/30 11:01:14;;;;;;;8.15;4.03;;;;;;;13.72;48.54;102676.50;5076524;28;20066;-72
2022/04/30 11:03:44;;;;;;;4.97;3.28;;;;;;;14.23;47.31;102662.97;5076352;28;20495;-72
2022/04/30 11:06:30;;;;;;;6.22;3.53;;;;;;;14.87;46.49;102661.41;5072906;28;20486;-72
2022/04/30 11:09:06;;;;;;;5.55;3.60;;;;;;;15.38;45.08;102654.59;5085154;28;20019;-71
2022/04/30 11:11:33;;;;;;;7.15;3.60;;;;;;;15.60;41.11;102655.13;5082623;28;20543;-71
2022/04/30 11:14:00;;;;;;;7.10;3.97;;;;;;;15.64;42.50;102651.56;5088856;28;20503;-72
2022/04/30 11:16:30;;;;;;;5.88;4.05;;;;;;;15.57;41.18;102649.06;5080132;28;20434;-71
2022/04/30 11:19:09;;;;;;;7.88;4.65;;;;;;;15.58;42.73;102645.53;5093407;28;20364;-72
2022/04/30 11:21:39;;;;;;;5.03;3.83;;;;;;;15.99;43.66;102631.72;5072972;28;20063;-73
2022/04/30 11:24:06;;;;;;;6.05;4.85;;;;;;;16.25;40.00;102640.91;5079324;28;20024;-72
2022/04/30 11:26:39;;;;;;;7.80;3.90;;;;;;;16.30;41.16;102634.66;5086991;28;20062;-74
2022/04/30 11:29:12;;;;;;;4.82;4.30;;;;;;;16.52;42.99;102626.34;5083544;28;20123;-72
2022/04/30 11:31:38;;;;;;;5.05;4.20;;;;;;;16.38;39.56;102623.97;5075864;28;20120;-72
2022/04/30 11:34:11;;;;;;;6.05;3.88;;;;;;;16.52;41.39;102621.94;5072143;28;20013;-72
2022/04/30 11:36:41;;;;;;;7.07;4.18;;;;;;;16.53;40.63;102622.81;5073059;28;20111;-72
2022/04/30 11:39:09;;;;;;;6.70;4.28;;;;;;;16.70;39.93;102617.19;5072931;28;20443;-72
2022/04/30 11:41:38;;;;;;;6.07;4.35;;;;;;;17.13;39.13;102609.25;5072027;28;20062;-72
2022/04/30 11:44:04;;;;;;;4.55;3.90;;;;;;;18.23;39.38;102600.38;5071156;28;20032;-72
2022/04/30 11:46:29;;;;;;;5.88;3.95;;;;;;;19.24;33.85;102604.47;5089409;28;20032;-72
2022/04/30 11:48:54;;;;;;;6.72;3.88;;;;;;;19.40;32.76;102593.34;5083444;28;20055;-72
2022/04/30 11:51:21;;;;;;;4.80;4.22;;;;;;;18.29;33.17;102599.34;5082207;28;20032;-79
2022/04/30 11:53:46;;;;;;;12.13;4.03;;;;;;;17.20;36.80;102600.31;5068959;28;20021;-78
2022/04/30 11:56:12;;;;;;;6.50;4.10;;;;;;;16.38;38.69;102611.72;5073302;28;20043;-72